sensor_id;sensor_type;location;lat;lon;timestamp;temperature;humidity
59282;DHT22;45054;52.062;10.010;2023-12-20T00:00:23;6.90;99.90
59282;DHT22;45054;52.062;10.010;2023-12-20T00:02:48;6.90;99.90
59282;DHT22;45054;52.062;10.010;2023-12-20T00:05:14;6.90;99.90
59282;DHT22;45054;52.062;10.010;2023-12-20T00:07:39;6.90;99.90
59282;DHT22;45054;52.062;10.010;2023-12-20T00:10:07;6.90;99.90
59282;DHT22;45054;52.062;10.010;2023-12-20T00:12:33;6.90;99.90
59282;DHT22;45054;52.062;10.010;2023-12-20T00:14:58;6.80;99.90
59282;DHT22;45054;52.062;10.010;2023-12-20T00:17:24;6.80;99.90
59282;DHT22;45054;52.062;10.010;2023-12-20T00:19:49;6.90;99.90
59282;DHT22;45054;52.062;10.010;2023-12-20T00:22:15;6.90;99.90
59282;DHT22;45054;52.062;10.010;2023-12-20T00:24:40;6.90;99.90
59282;DHT22;45054;52.062;10.010;2023-12-20T00:27:07;7.00;99.90
59282;DHT22;45054;52.062;10.010;2023-12-20T00:29:33;7.00;99.90
59282;DHT22;45054;52.062;10.010;2023-12-20T00:31:59;7.00;99.90
59282;DHT22;45054;52.062;10.010;2023-12-20T00:34:24;7.00;99.90
59282;DHT22;45054;52.062;10.010;2023-12-20T00:36:50;7.00;99.90
59282;DHT22;45054;52.062;10.010;2023-12-20T00:39:15;7.00;99.90
59282;DHT22;45054;52.062;10.010;2023-12-20T00:41:41;7.00;99.90
59282;DHT22;45054;52.062;10.010;2023-12-20T00:44:08;7.00;99.90
59282;DHT22;45054;52.062;10.010;2023-12-20T00:46:33;7.10;99.90
59282;DHT22;45054;52.062;10.010;2023-12-20T00:48:59;7.10;99.90
59282;DHT22;45054;52.062;10.010;2023-12-20T00:51:24;7.10;99.90
59282;DHT22;45054;52.062;10.010;2023-12-20T00:53:50;7.10;99.90
59282;DHT22;45054;52.062;10.010;2023-12-20T00:56:16;7.10;99.90
59282;DHT22;45054;52.062;10.010;2023-12-20T00:58:41;7.10;99.90
59282;DHT22;45054;52.062;10.010;2023-12-20T01:01:08;7.10;99.90
59282;DHT22;45054;52.062;10.010;2023-12-20T01:03:34;7.10;99.90
59282;DHT22;45054;52.062;10.010;2023-12-20T01:05:59;7.10;99.90
59282;DHT22;45054;52.062;10.010;2023-12-20T01:08:25;7.10;99.90
59282;DHT22;45054;52.062;10.010;2023-12-20T01:10:50;7.00;99.90
59282;DHT22;45054;52.062;10.010;2023-12-20T01:13:16;7.00;99.90
59282;DHT22;45054;52.062;10.010;2023-12-20T01:15:42;7.00;99.90
59282;DHT22;45054;52.062;10.010;2023-12-20T01:18:09;7.00;99.90
59282;DHT22;45054;52.062;10.010;2023-12-20T01:20:34;6.90;99.90
59282;DHT22;45054;52.062;10.010;2023-12-20T01:23:00;6.80;99.90
59282;DHT22;45054;52.062;10.010;2023-12-20T01:25:25;6.80;99.90
59282;DHT22;45054;52.062;10.010;2023-12-20T01:27:51;6.80;99.90
59282;DHT22;45054;52.062;10.010;2023-12-20T01:30:16;6.70;99.90
59282;DHT22;45054;52.062;10.010;2023-12-20T01:32:42;6.60;99.90
59282;DHT22;45054;52.062;10.010;2023-12-20T01:35:09;6.60;99.90
59282;DHT22;45054;52.062;10.010;2023-12-20T01:37:34;6.50;99.90
59282;DHT22;45054;52.062;10.010;2023-12-20T01:40:00;6.50;99.90
59282;DHT22;45054;52.062;10.010;2023-12-20T01:42:27;6.50;99.90
59282;DHT22;45054;52.062;10.010;2023-12-20T01:44:52;6.40;99.90
59282;DHT22;45054;52.062;10.010;2023-12-20T01:47:18;6.40;99.90
59282;DHT22;45054;52.062;10.010;2023-12-20T01:49:44;6.30;99.90
59282;DHT22;45054;52.062;10.010;2023-12-20T01:52:11;6.30;99.90
59282;DHT22;45054;52.062;10.010;2023-12-20T01:54:37;6.30;99.90
59282;DHT22;45054;52.062;10.010;2023-12-20T01:57:06;6.20;99.90
59282;DHT22;45054;52.062;10.010;2023-12-20T01:59:32;6.20;99.90
59282;DHT22;45054;52.062;10.010;2023-12-20T02:01:58;6.10;99.90
59282;DHT22;45054;52.062;10.010;2023-12-20T02:04:25;6.10;99.90
59282;DHT22;45054;52.062;10.010;2023-12-20T02:06:52;6.10;99.90
59282;DHT22;45054;52.062;10.010;2023-12-20T02:09:19;6.10;99.90
59282;DHT22;45054;52.062;10.010;2023-12-20T02:11:45;6.10;99.90
59282;DHT22;45054;52.062;10.010;2023-12-20T02:14:10;6.10;99.90
59282;DHT22;45054;52.062;10.010;2023-12-20T02:16:36;6.10;99.90
59282;DHT22;45054;52.062;10.010;2023-12-20T02:19:03;6.10;99.90
59282;DHT22;45054;52.062;10.010;2023-12-20T02:21:33;6.10;99.90
59282;DHT22;45054;52.062;10.010;2023-12-20T02:23:59;6.20;99.90
59282;DHT22;45054;52.062;10.010;2023-12-20T02:26:24;6.20;99.90
59282;DHT22;45054;52.062;10.010;2023-12-20T02:28:50;6.20;99.90
59282;DHT22;45054;52.062;10.010;2023-12-20T02:31:16;6.30;99.90
59282;DHT22;45054;52.062;10.010;2023-12-20T02:33:41;6.30;99.90
59282;DHT22;45054;52.062;10.010;2023-12-20T02:36:07;6.30;99.90
59282;DHT22;45054;52.062;10.010;2023-12-20T02:38:34;6.40;99.90
59282;DHT22;45054;52.062;10.010;2023-12-20T02:40:59;6.40;99.90
59282;DHT22;45054;52.062;10.010;2023-12-20T02:43:25;6.30;99.90
59282;DHT22;45054;52.062;10.010;2023-12-20T02:45:50;6.30;99.90
59282;DHT22;45054;52.062;10.010;2023-12-20T02:48:16;6.40;99.90
59282;DHT22;45054;52.062;10.010;2023-12-20T02:50:41;6.30;99.90
59282;DHT22;45054;52.062;10.010;2023-12-20T02:53:07;6.20;99.90
59282;DHT22;45054;52.062;10.010;2023-12-20T02:55:34;6.20;99.90
59282;DHT22;45054;52.062;10.010;2023-12-20T02:57:59;6.20;99.90
59282;DHT22;45054;52.062;10.010;2023-12-20T03:00:25;6.10;99.90
59282;DHT22;45054;52.062;10.010;2023-12-20T03:02:50;6.20;99.90
59282;DHT22;45054;52.062;10.010;2023-12-20T03:05:16;6.20;99.90
59282;DHT22;45054;52.062;10.010;2023-12-20T03:07:41;6.10;99.90
59282;DHT22;45054;52.062;10.010;2023-12-20T03:10:08;6.20;99.90
59282;DHT22;45054;52.062;10.010;2023-12-20T03:12:35;6.20;99.90
59282;DHT22;45054;52.062;10.010;2023-12-20T03:15:01;6.30;99.90
59282;DHT22;45054;52.062;10.010;2023-12-20T03:17:26;6.40;99.90
59282;DHT22;45054;52.062;10.010;2023-12-20T03:19:52;6.50;99.90
59282;DHT22;45054;52.062;10.010;2023-12-20T03:22:17;6.60;99.90
59282;DHT22;45054;52.062;10.010;2023-12-20T03:24:44;6.60;99.90
59282;DHT22;45054;52.062;10.010;2023-12-20T03:27:09;6.50;99.90
59282;DHT22;45054;52.062;10.010;2023-12-20T03:29:36;6.50;99.90
59282;DHT22;45054;52.062;10.010;2023-12-20T03:32:02;6.50;99.90
59282;DHT22;45054;52.062;10.010;2023-12-20T03:34:28;6.50;99.90
59282;DHT22;45054;52.062;10.010;2023-12-20T03:36:54;6.40;99.90
59282;DHT22;45054;52.062;10.010;2023-12-20T03:39:19;6.40;99.90
59282;DHT22;45054;52.062;10.010;2023-12-20T03:41:45;6.30;99.90
59282;DHT22;45054;52.062;10.010;2023-12-20T03:44:10;6.20;99.90
59282;DHT22;45054;52.062;10.010;2023-12-20T03:46:37;6.10;99.90
59282;DHT22;45054;52.062;10.010;2023-12-20T03:49:03;6.10;99.90
59282;DHT22;45054;52.062;10.010;2023-12-20T03:51:28;6.00;99.90
59282;DHT22;45054;52.062;10.010;2023-12-20T03:53:54;6.00;99.90
59282;DHT22;45054;52.062;10.010;2023-12-20T03:56:19;6.00;99.90
59282;DHT22;45054;52.062;10.010;2023-12-20T03:58:45;6.00;99.90
59282;DHT22;45054;52.062;10.010;2023-12-20T04:01:10;5.90;99.90
59282;DHT22;45054;52.062;10.010;2023-12-20T04:03:37;5.80;99.90
59282;DHT22;45054;52.062;10.010;2023-12-20T04:06:03;5.80;99.90
59282;DHT22;45054;52.062;10.010;2023-12-20T04:08:29;5.80;99.90
59282;DHT22;45054;52.062;10.010;2023-12-20T04:10:54;5.80;99.90
59282;DHT22;45054;52.062;10.010;2023-12-20T04:13:20;5.90;99.90
59282;DHT22;45054;52.062;10.010;2023-12-20T04:15:45;5.90;99.90
59282;DHT22;45054;52.062;10.010;2023-12-20T04:18:11;6.00;99.90
59282;DHT22;45054;52.062;10.010;2023-12-20T04:20:38;6.10;99.90
59282;DHT22;45054;52.062;10.010;2023-12-20T04:23:03;6.10;99.90
59282;DHT22;45054;52.062;10.010;2023-12-20T04:25:29;6.10;99.90
59282;DHT22;45054;52.062;10.010;2023-12-20T04:27:54;6.20;99.90
59282;DHT22;45054;52.062;10.010;2023-12-20T04:30:20;6.20;99.90
59282;DHT22;45054;52.062;10.010;2023-12-20T04:32:46;6.20;99.90
59282;DHT22;45054;52.062;10.010;2023-12-20T04:35:11;6.20;99.90
59282;DHT22;45054;52.062;10.010;2023-12-20T04:37:38;6.30;99.90
59282;DHT22;45054;52.062;10.010;2023-12-20T04:40:05;6.30;99.90
59282;DHT22;45054;52.062;10.010;2023-12-20T04:42:31;6.30;99.90
59282;DHT22;45054;52.062;10.010;2023-12-20T04:44:56;6.30;99.90
59282;DHT22;45054;52.062;10.010;2023-12-20T04:47:22;6.30;99.90
59282;DHT22;45054;52.062;10.010;2023-12-20T04:49:47;6.30;99.90
59282;DHT22;45054;52.062;10.010;2023-12-20T04:52:13;6.20;99.90
59282;DHT22;45054;52.062;10.010;2023-12-20T04:54:40;6.20;99.90
59282;DHT22;45054;52.062;10.010;2023-12-20T04:57:06;6.30;99.90
59282;DHT22;45054;52.062;10.010;2023-12-20T04:59:31;6.30;99.90
59282;DHT22;45054;52.062;10.010;2023-12-20T05:01:57;6.30;99.90
59282;DHT22;45054;52.062;10.010;2023-12-20T05:04:23;6.30;99.90
59282;DHT22;45054;52.062;10.010;2023-12-20T05:06:48;6.30;99.90
59282;DHT22;45054;52.062;10.010;2023-12-20T05:09:14;6.30;99.90
59282;DHT22;45054;52.062;10.010;2023-12-20T05:11:41;6.30;99.90
59282;DHT22;45054;52.062;10.010;2023-12-20T05:14:06;6.30;99.90
59282;DHT22;45054;52.062;10.010;2023-12-20T05:16:32;6.30;99.90
59282;DHT22;45054;52.062;10.010;2023-12-20T05:18:57;6.30;99.90
59282;DHT22;45054;52.062;10.010;2023-12-20T05:21:23;6.30;99.90
59282;DHT22;45054;52.062;10.010;2023-12-20T05:23:48;6.30;99.90
59282;DHT22;45054;52.062;10.010;2023-12-20T05:26:14;6.30;99.90
59282;DHT22;45054;52.062;10.010;2023-12-20T05:28:41;6.30;99.90
59282;DHT22;45054;52.062;10.010;2023-12-20T05:31:06;6.40;99.90
59282;DHT22;45054;52.062;10.010;2023-12-20T05:33:32;6.30;99.90
59282;DHT22;45054;52.062;10.010;2023-12-20T05:35:57;6.30;99.90
59282;DHT22;45054;52.062;10.010;2023-12-20T05:38:23;6.40;99.90
59282;DHT22;45054;52.062;10.010;2023-12-20T05:40:49;6.40;99.90
59282;DHT22;45054;52.062;10.010;2023-12-20T05:43:14;6.40;99.90
59282;DHT22;45054;52.062;10.010;2023-12-20T05:45:41;6.40;99.90
59282;DHT22;45054;52.062;10.010;2023-12-20T05:48:07;6.30;99.90
59282;DHT22;45054;52.062;10.010;2023-12-20T05:50:32;6.40;99.90
59282;DHT22;45054;52.062;10.010;2023-12-20T05:52:59;6.30;99.90
59282;DHT22;45054;52.062;10.010;2023-12-20T05:55:25;6.40;99.90
59282;DHT22;45054;52.062;10.010;2023-12-20T05:57:50;6.30;99.90
59282;DHT22;45054;52.062;10.010;2023-12-20T06:00:17;6.20;99.90
59282;DHT22;45054;52.062;10.010;2023-12-20T06:02:44;6.30;99.90
59282;DHT22;45054;52.062;10.010;2023-12-20T06:05:10;6.30;99.90
59282;DHT22;45054;52.062;10.010;2023-12-20T06:07:35;6.20;99.90
59282;DHT22;45054;52.062;10.010;2023-12-20T06:10:01;6.30;99.90
59282;DHT22;45054;52.062;10.010;2023-12-20T06:12:26;6.30;99.90
59282;DHT22;45054;52.062;10.010;2023-12-20T06:14:52;6.30;99.90
59282;DHT22;45054;52.062;10.010;2023-12-20T06:17:17;6.30;99.90
59282;DHT22;45054;52.062;10.010;2023-12-20T06:19:45;6.40;99.90
59282;DHT22;45054;52.062;10.010;2023-12-20T06:22:10;6.40;99.90
59282;DHT22;45054;52.062;10.010;2023-12-20T06:24:36;6.40;99.90
59282;DHT22;45054;52.062;10.010;2023-12-20T06:27:02;6.40;99.90
59282;DHT22;45054;52.062;10.010;2023-12-20T06:29:28;6.40;99.90
59282;DHT22;45054;52.062;10.010;2023-12-20T06:31:53;6.30;99.90
59282;DHT22;45054;52.062;10.010;2023-12-20T06:34:19;6.40;99.90
59282;DHT22;45054;52.062;10.010;2023-12-20T06:36:46;6.40;99.90
59282;DHT22;45054;52.062;10.010;2023-12-20T06:39:11;6.30;99.90
59282;DHT22;45054;52.062;10.010;2023-12-20T06:41:37;6.40;99.90
59282;DHT22;45054;52.062;10.010;2023-12-20T06:44:02;6.40;99.90
59282;DHT22;45054;52.062;10.010;2023-12-20T06:46:28;6.40;99.90
59282;DHT22;45054;52.062;10.010;2023-12-20T06:48:53;6.40;99.90
59282;DHT22;45054;52.062;10.010;2023-12-20T06:51:19;6.40;99.90
59282;DHT22;45054;52.062;10.010;2023-12-20T06:53:46;6.40;99.90
59282;DHT22;45054;52.062;10.010;2023-12-20T06:56:12;6.40;99.90
59282;DHT22;45054;52.062;10.010;2023-12-20T06:58:37;6.40;99.90
59282;DHT22;45054;52.062;10.010;2023-12-20T07:01:03;6.30;99.90
59282;DHT22;45054;52.062;10.010;2023-12-20T07:03:29;6.30;99.90
59282;DHT22;45054;52.062;10.010;2023-12-20T07:05:54;6.30;99.90
59282;DHT22;45054;52.062;10.010;2023-12-20T07:08:20;6.40;99.90
59282;DHT22;45054;52.062;10.010;2023-12-20T07:10:46;6.30;99.90
59282;DHT22;45054;52.062;10.010;2023-12-20T07:13:13;6.30;99.90
59282;DHT22;45054;52.062;10.010;2023-12-20T07:15:39;6.30;99.90
59282;DHT22;45054;52.062;10.010;2023-12-20T07:18:05;6.30;99.90
59282;DHT22;45054;52.062;10.010;2023-12-20T07:20:30;6.30;99.90
59282;DHT22;45054;52.062;10.010;2023-12-20T07:22:56;6.20;99.90
59282;DHT22;45054;52.062;10.010;2023-12-20T07:25:22;6.20;99.90
59282;DHT22;45054;52.062;10.010;2023-12-20T07:27:48;6.20;99.90
59282;DHT22;45054;52.062;10.010;2023-12-20T07:30:14;6.20;99.90
59282;DHT22;45054;52.062;10.010;2023-12-20T07:32:40;6.20;99.90
59282;DHT22;45054;52.062;10.010;2023-12-20T07:35:06;6.10;99.90
59282;DHT22;45054;52.062;10.010;2023-12-20T07:37:32;6.20;99.90
59282;DHT22;45054;52.062;10.010;2023-12-20T07:39:57;6.20;99.90
59282;DHT22;45054;52.062;10.010;2023-12-20T07:42:23;6.10;99.90
59282;DHT22;45054;52.062;10.010;2023-12-20T07:44:50;6.10;99.90
59282;DHT22;45054;52.062;10.010;2023-12-20T07:47:15;6.00;99.90
59282;DHT22;45054;52.062;10.010;2023-12-20T07:49:41;6.10;99.90
59282;DHT22;45054;52.062;10.010;2023-12-20T07:52:07;6.10;99.90
59282;DHT22;45054;52.062;10.010;2023-12-20T07:54:32;6.10;99.90
59282;DHT22;45054;52.062;10.010;2023-12-20T07:56:58;6.10;99.90
59282;DHT22;45054;52.062;10.010;2023-12-20T07:59:23;6.10;99.90
59282;DHT22;45054;52.062;10.010;2023-12-20T08:01:50;6.00;99.90
59282;DHT22;45054;52.062;10.010;2023-12-20T08:04:16;6.00;99.90
59282;DHT22;45054;52.062;10.010;2023-12-20T08:06:41;6.10;99.90
59282;DHT22;45054;52.062;10.010;2023-12-20T08:09:07;6.20;99.90
59282;DHT22;45054;52.062;10.010;2023-12-20T08:11:32;6.20;99.90
59282;DHT22;45054;52.062;10.010;2023-12-20T08:13:58;6.20;99.90
59282;DHT22;45054;52.062;10.010;2023-12-20T08:16:23;6.20;99.90
59282;DHT22;45054;52.062;10.010;2023-12-20T08:18:50;6.20;99.90
59282;DHT22;45054;52.062;10.010;2023-12-20T08:21:16;6.30;99.90
59282;DHT22;45054;52.062;10.010;2023-12-20T08:23:42;6.30;99.90
59282;DHT22;45054;52.062;10.010;2023-12-20T08:26:08;6.40;99.90
59282;DHT22;45054;52.062;10.010;2023-12-20T08:28:33;6.30;99.90
59282;DHT22;45054;52.062;10.010;2023-12-20T08:30:59;6.40;99.90
59282;DHT22;45054;52.062;10.010;2023-12-20T08:33:25;6.30;99.90
59282;DHT22;45054;52.062;10.010;2023-12-20T08:35:52;6.30;99.90
59282;DHT22;45054;52.062;10.010;2023-12-20T08:38:17;6.30;99.90
59282;DHT22;45054;52.062;10.010;2023-12-20T08:40:43;6.40;99.90
59282;DHT22;45054;52.062;10.010;2023-12-20T08:43:09;6.40;99.90
59282;DHT22;45054;52.062;10.010;2023-12-20T08:45:34;6.50;99.90
59282;DHT22;45054;52.062;10.010;2023-12-20T08:48:00;6.50;99.90
59282;DHT22;45054;52.062;10.010;2023-12-20T08:50:25;6.50;99.90
59282;DHT22;45054;52.062;10.010;2023-12-20T08:52:52;6.60;99.90
59282;DHT22;45054;52.062;10.010;2023-12-20T08:55:19;6.50;99.90
59282;DHT22;45054;52.062;10.010;2023-12-20T08:57:45;6.40;99.90
59282;DHT22;45054;52.062;10.010;2023-12-20T09:00:11;6.40;99.90
59282;DHT22;45054;52.062;10.010;2023-12-20T09:02:37;6.40;99.90
59282;DHT22;45054;52.062;10.010;2023-12-20T09:05:03;6.50;99.90
59282;DHT22;45054;52.062;10.010;2023-12-20T09:07:29;6.40;99.90
59282;DHT22;45054;52.062;10.010;2023-12-20T09:09:56;6.40;99.90
59282;DHT22;45054;52.062;10.010;2023-12-20T09:12:22;6.50;99.90
59282;DHT22;45054;52.062;10.010;2023-12-20T09:14:48;6.50;99.90
59282;DHT22;45054;52.062;10.010;2023-12-20T09:17:15;6.50;99.90
59282;DHT22;45054;52.062;10.010;2023-12-20T09:19:40;6.50;99.90
59282;DHT22;45054;52.062;10.010;2023-12-20T09:22:06;6.60;99.90
59282;DHT22;45054;52.062;10.010;2023-12-20T09:24:31;6.60;99.90
59282;DHT22;45054;52.062;10.010;2023-12-20T09:26:58;6.50;99.90
59282;DHT22;45054;52.062;10.010;2023-12-20T09:29:24;6.50;99.90
59282;DHT22;45054;52.062;10.010;2023-12-20T09:31:49;6.50;99.90
59282;DHT22;45054;52.062;10.010;2023-12-20T09:34:15;6.50;99.90
59282;DHT22;45054;52.062;10.010;2023-12-20T09:36:41;6.60;99.90
59282;DHT22;45054;52.062;10.010;2023-12-20T09:39:06;6.60;99.90
59282;DHT22;45054;52.062;10.010;2023-12-20T09:41:35;6.60;99.90
59282;DHT22;45054;52.062;10.010;2023-12-20T09:44:04;6.60;99.90
59282;DHT22;45054;52.062;10.010;2023-12-20T09:46:32;6.60;99.90
59282;DHT22;45054;52.062;10.010;2023-12-20T09:49:00;6.60;99.90
59282;DHT22;45054;52.062;10.010;2023-12-20T09:51:26;6.70;99.90
59282;DHT22;45054;52.062;10.010;2023-12-20T09:53:54;6.60;99.90
59282;DHT22;45054;52.062;10.010;2023-12-20T09:56:22;6.60;99.90
59282;DHT22;45054;52.062;10.010;2023-12-20T09:58:48;6.70;99.90
59282;DHT22;45054;52.062;10.010;2023-12-20T10:01:16;6.70;99.90
59282;DHT22;45054;52.062;10.010;2023-12-20T10:03:42;6.70;99.90
59282;DHT22;45054;52.062;10.010;2023-12-20T10:06:08;6.70;99.90
59282;DHT22;45054;52.062;10.010;2023-12-20T10:08:34;6.70;99.90
59282;DHT22;45054;52.062;10.010;2023-12-20T10:11:00;6.70;99.90
59282;DHT22;45054;52.062;10.010;2023-12-20T10:13:25;6.80;99.90
59282;DHT22;45054;52.062;10.010;2023-12-20T10:15:51;6.80;99.90
59282;DHT22;45054;52.062;10.010;2023-12-20T10:18:18;6.80;99.90
59282;DHT22;45054;52.062;10.010;2023-12-20T10:20:44;6.80;99.90
59282;DHT22;45054;52.062;10.010;2023-12-20T10:23:10;6.80;99.90
59282;DHT22;45054;52.062;10.010;2023-12-20T10:25:36;6.80;99.90
59282;DHT22;45054;52.062;10.010;2023-12-20T10:28:12;6.80;99.90
59282;DHT22;45054;52.062;10.010;2023-12-20T10:30:38;6.80;99.90
59282;DHT22;45054;52.062;10.010;2023-12-20T10:33:05;6.80;99.90
59282;DHT22;45054;52.062;10.010;2023-12-20T10:35:33;6.80;99.90
59282;DHT22;45054;52.062;10.010;2023-12-20T10:38:03;6.80;99.90
59282;DHT22;45054;52.062;10.010;2023-12-20T10:40:29;6.80;99.90
59282;DHT22;45054;52.062;10.010;2023-12-20T10:42:56;6.80;99.90
59282;DHT22;45054;52.062;10.010;2023-12-20T10:45:23;6.80;99.90
59282;DHT22;45054;52.062;10.010;2023-12-20T10:47:49;6.80;99.90
59282;DHT22;45054;52.062;10.010;2023-12-20T10:50:15;6.90;99.90
59282;DHT22;45054;52.062;10.010;2023-12-20T10:52:42;6.90;99.90
59282;DHT22;45054;52.062;10.010;2023-12-20T10:55:10;6.80;99.90
59282;DHT22;45054;52.062;10.010;2023-12-20T10:57:36;6.80;99.90
59282;DHT22;45054;52.062;10.010;2023-12-20T11:00:02;6.90;99.90
59282;DHT22;45054;52.062;10.010;2023-12-20T11:02:29;6.90;99.90
59282;DHT22;45054;52.062;10.010;2023-12-20T11:05:01;6.90;99.90
59282;DHT22;45054;52.062;10.010;2023-12-20T11:07:35;6.80;99.90
59282;DHT22;45054;52.062;10.010;2023-12-20T11:10:12;6.90;99.90
59282;DHT22;45054;52.062;10.010;2023-12-20T11:12:44;6.90;99.90
59282;DHT22;45054;52.062;10.010;2023-12-20T11:15:12;6.90;99.90
59282;DHT22;45054;52.062;10.010;2023-12-20T11:17:39;6.90;99.90
59282;DHT22;45054;52.062;10.010;2023-12-20T11:20:10;7.00;99.90
59282;DHT22;45054;52.062;10.010;2023-12-20T11:22:35;7.00;99.90
59282;DHT22;45054;52.062;10.010;2023-12-20T11:25:07;7.00;99.90
59282;DHT22;45054;52.062;10.010;2023-12-20T11:27:33;7.00;99.90
59282;DHT22;45054;52.062;10.010;2023-12-20T11:29:59;7.00;99.90
59282;DHT22;45054;52.062;10.010;2023-12-20T11:32:28;7.00;99.90
59282;DHT22;45054;52.062;10.010;2023-12-20T11:34:55;6.80;99.90
59282;DHT22;45054;52.062;10.010;2023-12-20T11:37:21;6.80;99.90
59282;DHT22;45054;52.062;10.010;2023-12-20T11:39:54;6.80;99.90
59282;DHT22;45054;52.062;10.010;2023-12-20T11:42:21;6.80;99.90
59282;DHT22;45054;52.062;10.010;2023-12-20T11:44:47;6.70;99.90
59282;DHT22;45054;52.062;10.010;2023-12-20T11:47:13;6.80;99.90
59282;DHT22;45054;52.062;10.010;2023-12-20T11:49:39;6.80;99.90
59282;DHT22;45054;52.062;10.010;2023-12-20T11:52:05;6.80;99.90
59282;DHT22;45054;52.062;10.010;2023-12-20T11:54:30;6.80;99.90
59282;DHT22;45054;52.062;10.010;2023-12-20T11:56:56;6.80;99.90
59282;DHT22;45054;52.062;10.010;2023-12-20T11:59:23;6.80;99.90
59282;DHT22;45054;52.062;10.010;2023-12-20T12:01:49;6.80;99.90
59282;DHT22;45054;52.062;10.010;2023-12-20T12:04:15;6.90;99.90
59282;DHT22;45054;52.062;10.010;2023-12-20T12:06:40;6.90;99.90
59282;DHT22;45054;52.062;10.010;2023-12-20T12:09:06;6.80;99.90
59282;DHT22;45054;52.062;10.010;2023-12-20T12:11:31;6.90;99.90
59282;DHT22;45054;52.062;10.010;2023-12-20T12:13:57;6.90;99.90
59282;DHT22;45054;52.062;10.010;2023-12-20T12:16:25;7.00;99.90
59282;DHT22;45054;52.062;10.010;2023-12-20T12:18:57;7.00;99.90
59282;DHT22;45054;52.062;10.010;2023-12-20T12:21:22;7.10;99.90
59282;DHT22;45054;52.062;10.010;2023-12-20T12:23:48;7.20;99.90
59282;DHT22;45054;52.062;10.010;2023-12-20T12:26:13;7.20;99.90
59282;DHT22;45054;52.062;10.010;2023-12-20T12:28:40;7.20;99.90
59282;DHT22;45054;52.062;10.010;2023-12-20T12:31:05;7.20;99.90
59282;DHT22;45054;52.062;10.010;2023-12-20T12:33:32;7.20;99.90
59282;DHT22;45054;52.062;10.010;2023-12-20T12:35:58;7.20;99.90
59282;DHT22;45054;52.062;10.010;2023-12-20T12:38:24;7.20;99.90
59282;DHT22;45054;52.062;10.010;2023-12-20T12:40:50;7.30;99.90
59282;DHT22;45054;52.062;10.010;2023-12-20T12:43:16;7.20;99.90
59282;DHT22;45054;52.062;10.010;2023-12-20T12:45:41;7.10;99.90
59282;DHT22;45054;52.062;10.010;2023-12-20T12:48:07;7.00;99.90
59282;DHT22;45054;52.062;10.010;2023-12-20T12:50:34;7.00;99.90
59282;DHT22;45054;52.062;10.010;2023-12-20T12:52:59;6.80;99.90
59282;DHT22;45054;52.062;10.010;2023-12-20T12:55:25;6.70;99.90
59282;DHT22;45054;52.062;10.010;2023-12-20T12:57:51;6.00;99.90
59282;DHT22;45054;52.062;10.010;2023-12-20T13:00:16;5.30;99.90
59282;DHT22;45054;52.062;10.010;2023-12-20T13:02:42;5.00;99.90
59282;DHT22;45054;52.062;10.010;2023-12-20T13:05:08;4.70;99.90
59282;DHT22;45054;52.062;10.010;2023-12-20T13:07:35;4.60;99.90
59282;DHT22;45054;52.062;10.010;2023-12-20T13:10:01;4.50;99.90
59282;DHT22;45054;52.062;10.010;2023-12-20T13:12:26;4.50;99.90
59282;DHT22;45054;52.062;10.010;2023-12-20T13:14:52;4.40;99.90
59282;DHT22;45054;52.062;10.010;2023-12-20T13:17:18;4.40;99.90
59282;DHT22;45054;52.062;10.010;2023-12-20T13:19:44;4.40;99.90
59282;DHT22;45054;52.062;10.010;2023-12-20T13:22:09;4.40;99.90
59282;DHT22;45054;52.062;10.010;2023-12-20T13:24:36;4.40;99.90
59282;DHT22;45054;52.062;10.010;2023-12-20T13:27:02;4.50;99.90
59282;DHT22;45054;52.062;10.010;2023-12-20T13:29:28;4.60;99.90
59282;DHT22;45054;52.062;10.010;2023-12-20T13:31:53;4.70;99.90
59282;DHT22;45054;52.062;10.010;2023-12-20T13:34:19;4.70;99.90
59282;DHT22;45054;52.062;10.010;2023-12-20T13:36:45;4.80;99.90
59282;DHT22;45054;52.062;10.010;2023-12-20T13:39:10;4.90;99.90
59282;DHT22;45054;52.062;10.010;2023-12-20T13:41:37;5.00;99.90
59282;DHT22;45054;52.062;10.010;2023-12-20T13:44:03;5.00;99.90
59282;DHT22;45054;52.062;10.010;2023-12-20T13:46:28;5.00;99.90
59282;DHT22;45054;52.062;10.010;2023-12-20T13:48:54;5.00;99.90
59282;DHT22;45054;52.062;10.010;2023-12-20T13:51:20;5.10;99.90
59282;DHT22;45054;52.062;10.010;2023-12-20T13:53:45;5.20;99.90
59282;DHT22;45054;52.062;10.010;2023-12-20T13:56:11;5.20;99.90
59282;DHT22;45054;52.062;10.010;2023-12-20T13:58:38;5.30;99.90
59282;DHT22;45054;52.062;10.010;2023-12-20T14:01:04;5.30;99.90
59282;DHT22;45054;52.062;10.010;2023-12-20T14:03:29;5.30;99.90
59282;DHT22;45054;52.062;10.010;2023-12-20T14:05:55;5.40;99.90
59282;DHT22;45054;52.062;10.010;2023-12-20T14:08:20;5.40;99.90
59282;DHT22;45054;52.062;10.010;2023-12-20T14:10:46;5.50;99.90
59282;DHT22;45054;52.062;10.010;2023-12-20T14:13:11;5.40;99.90
59282;DHT22;45054;52.062;10.010;2023-12-20T14:15:41;5.40;99.90
59282;DHT22;45054;52.062;10.010;2023-12-20T14:18:07;5.50;99.90
59282;DHT22;45054;52.062;10.010;2023-12-20T14:20:32;5.60;99.90
59282;DHT22;45054;52.062;10.010;2023-12-20T14:22:58;5.70;99.90
59282;DHT22;45054;52.062;10.010;2023-12-20T14:25:23;5.70;99.90
59282;DHT22;45054;52.062;10.010;2023-12-20T14:27:49;5.70;99.90
59282;DHT22;45054;52.062;10.010;2023-12-20T14:30:14;5.70;99.90
59282;DHT22;45054;52.062;10.010;2023-12-20T14:32:41;5.80;99.90
59282;DHT22;45054;52.062;10.010;2023-12-20T14:35:07;5.80;99.90
59282;DHT22;45054;52.062;10.010;2023-12-20T14:37:33;5.80;99.90
59282;DHT22;45054;52.062;10.010;2023-12-20T14:39:58;5.70;99.90
59282;DHT22;45054;52.062;10.010;2023-12-20T14:42:24;5.70;99.90
59282;DHT22;45054;52.062;10.010;2023-12-20T14:44:49;5.80;99.90
59282;DHT22;45054;52.062;10.010;2023-12-20T14:47:15;5.80;99.90
59282;DHT22;45054;52.062;10.010;2023-12-20T14:49:42;5.80;99.90
59282;DHT22;45054;52.062;10.010;2023-12-20T14:52:08;5.70;99.90
59282;DHT22;45054;52.062;10.010;2023-12-20T14:54:33;5.70;99.90
59282;DHT22;45054;52.062;10.010;2023-12-20T14:57:00;5.70;99.90
59282;DHT22;45054;52.062;10.010;2023-12-20T14:59:26;5.70;99.90
59282;DHT22;45054;52.062;10.010;2023-12-20T15:01:51;5.70;99.90
59282;DHT22;45054;52.062;10.010;2023-12-20T15:04:17;5.70;99.90
59282;DHT22;45054;52.062;10.010;2023-12-20T15:06:44;5.70;99.90
59282;DHT22;45054;52.062;10.010;2023-12-20T15:09:09;5.80;99.90
59282;DHT22;45054;52.062;10.010;2023-12-20T15:11:35;5.80;99.90
59282;DHT22;45054;52.062;10.010;2023-12-20T15:14:00;5.80;99.90
59282;DHT22;45054;52.062;10.010;2023-12-20T15:16:26;5.70;99.90
59282;DHT22;45054;52.062;10.010;2023-12-20T15:18:52;5.70;99.90
59282;DHT22;45054;52.062;10.010;2023-12-20T15:21:17;5.60;99.90